Terminal Aerodrome Forecast
Issued by NWS

Home | Current Version | Previous Version | Text Only | Print | Product List | Glossary On
Versions: 1 2 3 4 5 6 7 8 9 10 11 12 13 14 15 16 17 18 19 20 21 22 23 24 25 26 27 28 29 30 31 32 33 34 35 36 37
861
FTUS41 KOKX 242032 AAA
TAFTEB
TAF AMD
KTEB 242032Z 2421/2524 01004KT 6SM -SHRA SCT025 OVC050
     FM250000 VRB04KT 6SM -SHRA SCT020 OVC040
     FM250300 VRB04KT 6SM -SHRA SCT010 BKN020 OVC040
     FM250800 08007KT 3SM RA BR OVC008
     FM251400 09010KT 2SM RA BR OVC006
     FM251800 VRB04KT 2SM -RADZ BR OVC005
      TEMPO 2518/2521 1SM BR OVC004
     FM252100 VRB04KT 4SM -SHRA BR BKN015=

USA.gov is the U.S. government's official web portal to all federal, state and local government web resources and services.